Terminal Aerodrome Forecast
Issued by NWS

Home | Current Version | Previous Version | Graphics & Text | Print | Product List | Glossary On
Versions: 1 2 3 4 5 6 7 8 9 10 11 12 13 14 15
000
FTUS43 KBIS 171100
TAFDIK
TAF
KDIK 171120Z 1712/1812 12005KT P6SM FEW250
     FM171800 13012G18KT P6SM SCT150=

USA.gov is the U.S. government's official web portal to all federal, state and local government web resources and services.